Time;durP1;ratioP1;P1;durP2;ratioP2;P2;SDS_P1;SDS_P2;PMS_P1;PMS_P2;Temp;Humidity;BMP_temperature;BMP_pressure;BME280_temperature;BME280_humidity;BME280_pressure;Samples;Min_cycle;Max_cycle;Signal;HPM_P1;HPM_P2
2021/06/24 00:01:14;;;;;;;4.97;2.07;;;;;;;16.77;82.71;100951.66;4993732;28;20178;-71
2021/06/24 00:03:41;;;;;;;2.50;2.37;;;;;;;16.98;82.78;100954.38;4993670;28;20184;-71
2021/06/24 00:06:10;;;;;;;2.13;2.03;;;;;;;16.94;81.37;100965.28;4993986;28;20267;-70
2021/06/24 00:08:36;;;;;;;2.87;2.40;;;;;;;17.01;81.78;100960.00;4993666;28;20174;-71
2021/06/24 00:11:03;;;;;;;2.20;2.10;;;;;;;16.73;81.27;100953.50;4993348;28;20189;-70
2021/06/24 00:13:29;;;;;;;3.17;2.00;;;;;;;16.99;81.41;100962.31;4993359;28;20178;-71
2021/06/24 00:15:56;;;;;;;3.27;2.97;;;;;;;16.94;81.42;100963.34;4992943;28;20203;-71
2021/06/24 00:18:21;;;;;;;2.97;2.20;;;;;;;17.04;81.06;100956.56;4993339;28;20177;-71
2021/06/24 00:20:48;;;;;;;2.43;2.23;;;;;;;17.04;81.54;100950.22;4993209;28;20208;-71
2021/06/24 00:23:14;;;;;;;2.27;2.07;;;;;;;16.86;81.99;100942.16;4993363;28;20181;-70
2021/06/24 00:25:40;;;;;;;3.13;2.17;;;;;;;16.65;82.76;100935.88;4993256;28;20181;-70
2021/06/24 00:28:06;;;;;;;2.10;1.90;;;;;;;16.68;83.48;100934.41;4993162;28;20177;-71
2021/06/24 00:30:34;;;;;;;2.37;2.20;;;;;;;16.50;83.98;100942.03;4992871;28;20476;-70
2021/06/24 00:32:59;;;;;;;2.73;2.50;;;;;;;16.41;84.98;100941.28;4993071;28;20173;-70
2021/06/24 00:35:25;;;;;;;2.33;2.20;;;;;;;16.37;84.51;100943.91;4993009;28;20209;-70
2021/06/24 00:37:50;;;;;;;2.67;2.47;;;;;;;15.96;85.57;100944.72;4992937;28;20486;-70
2021/06/24 00:40:16;;;;;;;3.37;2.50;;;;;;;15.81;86.33;100943.38;4992818;28;20173;-70
2021/06/24 00:42:42;;;;;;;2.77;2.57;;;;;;;15.81;86.93;100932.34;4991496;28;20234;-70
2021/06/24 00:45:11;;;;;;;2.57;2.37;;;;;;;15.98;86.25;100929.47;4992950;28;20174;-71
2021/06/24 00:47:37;;;;;;;2.00;1.90;;;;;;;15.85;87.06;100936.03;4992526;28;20584;-71
2021/06/24 00:50:05;;;;;;;2.37;2.17;;;;;;;15.99;86.67;100938.53;4992517;28;20272;-70
2021/06/24 00:52:31;;;;;;;2.30;1.77;;;;;;;15.94;86.47;100936.81;4992772;28;20185;-71
2021/06/24 00:54:57;;;;;;;3.10;2.90;;;;;;;15.83;86.97;100927.31;4992633;28;20255;-71
2021/06/24 00:57:24;;;;;;;2.77;2.57;;;;;;;15.87;86.40;100931.00;4992676;28;20271;-71
2021/06/24 00:59:50;;;;;;;2.03;1.83;;;;;;;15.87;86.83;100930.19;4992292;28;20188;-70
2021/06/24 01:02:16;;;;;;;3.30;2.80;;;;;;;16.02;86.45;100929.59;4992909;28;20169;-70
2021/06/24 01:04:41;;;;;;;2.00;1.90;;;;;;;16.23;85.93;100921.34;4992545;28;20663;-70
2021/06/24 01:07:07;;;;;;;1.80;1.70;;;;;;;16.07;86.09;100934.94;4992561;28;20205;-70
2021/06/24 01:09:33;;;;;;;2.33;2.13;;;;;;;16.22;85.90;100933.50;4991736;28;20734;-70
2021/06/24 01:12:02;;;;;;;2.10;1.93;;;;;;;16.20;85.31;100939.38;4992272;28;20174;-71
2021/06/24 01:14:27;;;;;;;2.73;1.80;;;;;;;15.93;85.70;100926.91;4992226;28;20267;-71
2021/06/24 01:16:53;;;;;;;2.53;2.33;;;;;;;15.76;86.28;100919.56;4992294;28;20185;-70
2021/06/24 01:19:19;;;;;;;2.07;1.97;;;;;;;15.90;86.76;100930.31;4992084;28;20227;-70
2021/06/24 01:21:45;;;;;;;3.07;2.27;;;;;;;15.61;86.89;100931.16;4992123;28;20188;-71
2021/06/24 01:24:11;;;;;;;2.13;1.93;;;;;;;15.68;87.53;100941.69;4992267;28;20180;-71
2021/06/24 01:26:38;;;;;;;2.53;2.33;;;;;;;15.61;87.47;100935.88;4991974;28;20177;-70
2021/06/24 01:29:04;;;;;;;3.60;2.43;;;;;;;15.65;87.43;100931.31;4991681;28;20649;-73
2021/06/24 01:31:30;;;;;;;2.40;2.20;;;;;;;15.58;87.54;100931.00;4992398;28;20251;-73
2021/06/24 01:33:56;;;;;;;2.57;2.43;;;;;;;15.51;88.49;100928.78;4991960;28;20227;-72
2021/06/24 01:36:21;;;;;;;2.90;2.70;;;;;;;15.42;88.48;100925.25;4992095;28;20183;-73
2021/06/24 01:38:47;;;;;;;3.37;2.77;;;;;;;15.38;88.97;100925.13;4991681;28;20646;-73
2021/06/24 01:41:13;;;;;;;3.03;2.63;;;;;;;15.38;89.17;100922.38;4991457;28;20289;-73
2021/06/24 01:43:39;;;;;;;2.97;2.67;;;;;;;15.35;89.40;100931.28;4991939;28;20235;-73
2021/06/24 01:46:04;;;;;;;3.47;2.90;;;;;;;15.27;89.55;100921.13;4991741;28;20173;-70
2021/06/24 01:48:30;;;;;;;3.03;2.63;;;;;;;15.34;89.50;100915.91;4991403;28;20177;-71
2021/06/24 01:51:00;;;;;;;2.50;2.30;;;;;;;15.28;89.33;100913.66;4991447;28;20185;-73
2021/06/24 01:53:26;;;;;;;2.63;2.43;;;;;;;15.22;89.62;100920.50;4991680;28;20691;-73
2021/06/24 01:55:52;;;;;;;2.60;2.40;;;;;;;15.26;89.66;100905.75;4991607;28;20248;-73
2021/06/24 01:58:24;;;;;;;3.10;2.70;;;;;;;15.40;89.24;100900.81;4991541;28;20177;-73
2021/06/24 02:00:51;;;;;;;2.33;2.20;;;;;;;15.27;89.10;100906.56;4991395;28;20181;-73
2021/06/24 02:03:18;;;;;;;3.00;2.80;;;;;;;15.27;89.69;100907.34;4991447;28;20200;-73
2021/06/24 02:05:46;;;;;;;3.60;3.17;;;;;;;15.38;89.38;100908.59;4991423;28;20331;-73
2021/06/24 02:08:20;;;;;;;2.40;2.30;;;;;;;15.45;88.97;100897.84;4991237;28;20184;-73
2021/06/24 02:10:46;;;;;;;2.40;2.20;;;;;;;15.55;87.99;100902.19;4991352;28;20650;-73
2021/06/24 02:13:12;;;;;;;2.87;2.67;;;;;;;15.39;88.77;100906.66;4991153;28;20184;-73
2021/06/24 02:15:38;;;;;;;2.60;2.40;;;;;;;15.37;89.35;100903.44;4991187;28;20213;-73
2021/06/24 02:18:04;;;;;;;2.50;2.30;;;;;;;15.49;88.71;100906.28;4991302;28;20252;-73
2021/06/24 02:20:30;;;;;;;3.07;2.77;;;;;;;15.34;88.91;100909.59;4990114;28;20285;-73
2021/06/24 02:22:55;;;;;;;3.73;2.43;;;;;;;15.43;89.22;100910.34;4991454;28;20545;-73
2021/06/24 02:25:20;;;;;;;2.80;2.60;;;;;;;15.65;88.86;100907.34;4991132;28;20192;-74
2021/06/24 02:27:46;;;;;;;2.53;2.33;;;;;;;15.75;87.88;100903.38;4991087;28;20672;-73
2021/06/24 02:30:13;;;;;;;2.80;2.20;;;;;;;15.79;87.89;100906.28;4991222;28;20205;-73
2021/06/24 02:32:39;;;;;;;3.43;3.13;;;;;;;15.82;87.07;100900.91;4990999;28;20181;-70
2021/06/24 02:35:07;;;;;;;2.73;2.53;;;;;;;15.61;87.68;100900.06;4990945;28;20554;-70
2021/06/24 02:37:33;;;;;;;3.37;3.10;;;;;;;15.62;87.79;100902.50;4990991;28;20177;-71
2021/06/24 02:39:58;;;;;;;4.63;2.47;;;;;;;15.37;88.40;100901.47;4990645;28;20543;-70
2021/06/24 02:42:24;;;;;;;2.70;2.50;;;;;;;15.48;88.52;100907.41;4990859;28;20200;-70
2021/06/24 02:44:49;;;;;;;3.20;2.90;;;;;;;15.71;88.33;100905.19;4989616;28;20196;-70
2021/06/24 02:47:15;;;;;;;3.60;2.60;;;;;;;15.86;87.80;100907.34;4990655;28;20611;-73
2021/06/24 02:49:40;;;;;;;2.70;2.50;;;;;;;15.59;87.39;100908.66;4972027;28;20174;-73
2021/06/24 02:52:06;;;;;;;2.40;2.20;;;;;;;15.61;87.97;100900.88;4987296;28;20185;-72
2021/06/24 02:54:31;;;;;;;2.80;2.50;;;;;;;15.64;88.27;100905.72;4991307;28;20284;-73
2021/06/24 02:57:00;;;;;;;2.70;2.43;;;;;;;15.84;88.13;100901.38;4991400;28;20728;-71
2021/06/24 02:59:27;;;;;;;3.83;2.40;;;;;;;15.99;87.26;100906.28;4991214;28;20252;-70
2021/06/24 03:01:52;;;;;;;3.33;2.70;;;;;;;15.96;87.48;100889.59;4991094;28;20173;-70
2021/06/24 03:04:21;;;;;;;3.20;2.90;;;;;;;15.91;87.35;100887.88;4991218;28;20212;-70
2021/06/24 03:06:48;;;;;;;2.60;2.40;;;;;;;15.91;87.52;100878.78;4991358;28;20582;-70
2021/06/24 03:09:13;;;;;;;4.57;2.87;;;;;;;16.01;87.22;100881.94;4990993;28;20847;-70
2021/06/24 03:11:38;;;;;;;2.57;2.37;;;;;;;15.82;87.46;100883.56;4991212;28;20173;-70
2021/06/24 03:14:04;;;;;;;2.70;2.30;;;;;;;15.62;87.51;100879.63;4991192;28;20176;-70
2021/06/24 03:16:29;;;;;;;2.60;2.40;;;;;;;15.66;88.08;100880.59;4991413;28;20189;-71
2021/06/24 03:18:55;;;;;;;3.50;2.47;;;;;;;15.80;87.76;100880.34;4991000;28;20602;-71
2021/06/24 03:21:20;;;;;;;3.17;2.80;;;;;;;15.41;87.71;100880.41;4991230;28;20177;-70
2021/06/24 03:23:46;;;;;;;2.87;2.67;;;;;;;15.24;89.06;100879.69;4989818;28;20402;-73
2021/06/24 03:26:11;;;;;;;3.00;2.80;;;;;;;15.00;90.30;100872.84;4991200;28;20415;-70
2021/06/24 03:28:37;;;;;;;6.33;3.10;;;;;;;15.02;90.69;100872.50;4991077;28;20181;-70
2021/06/24 03:31:02;;;;;;;3.23;2.90;;;;;;;14.97;90.94;100865.25;4991256;28;20216;-70
2021/06/24 03:33:28;;;;;;;3.70;3.40;;;;;;;15.17;90.11;100871.94;4994085;28;20181;-70
2021/06/24 03:35:53;;;;;;;3.63;2.87;;;;;;;15.07;90.65;100875.09;4994596;28;20208;-73
2021/06/24 03:38:19;;;;;;;3.13;2.83;;;;;;;15.01;90.83;100876.38;4994740;28;20189;-73
2021/06/24 03:40:45;;;;;;;3.70;3.30;;;;;;;14.95;90.94;100866.72;4993165;28;20178;-73
2021/06/24 03:43:10;;;;;;;2.57;2.37;;;;;;;15.17;90.67;100861.72;4994499;28;20181;-73
2021/06/24 03:45:37;;;;;;;3.80;3.33;;;;;;;15.38;89.79;100866.50;4994495;28;20177;-73
2021/06/24 03:48:03;;;;;;;6.70;2.93;;;;;;;15.43;89.50;100866.28;4994292;28;20185;-72
2021/06/24 03:50:29;;;;;;;2.80;2.60;;;;;;;15.56;88.54;100869.94;4994153;28;20181;-73
2021/06/24 03:52:54;;;;;;;3.13;2.90;;;;;;;15.44;88.35;100873.41;4994336;28;20169;-73
2021/06/24 03:55:35;;;;;;;3.30;3.00;;;;;;;15.09;89.67;100870.06;4994242;28;20205;-70
2021/06/24 03:58:00;;;;;;;10.33;2.90;;;;;;;15.21;89.73;100880.38;4993178;28;20216;-70
2021/06/24 04:00:25;;;;;;;3.33;3.00;;;;;;;15.08;90.14;100872.00;4994081;28;20201;-73
2021/06/24 04:02:51;;;;;;;3.83;3.40;;;;;;;15.01;90.60;100876.38;4994236;28;20185;-73
2021/06/24 04:05:16;;;;;;;3.60;3.30;;;;;;;14.98;90.58;100880.63;4994209;28;20244;-73
2021/06/24 04:07:42;;;;;;;3.77;2.40;;;;;;;14.96;91.32;100879.34;4994111;28;20177;-73
2021/06/24 04:10:07;;;;;;;3.03;2.73;;;;;;;14.88;91.28;100884.53;4993952;28;20210;-73
2021/06/24 04:12:33;;;;;;;2.90;2.70;;;;;;;15.08;91.39;100879.44;4993999;28;20181;-73
2021/06/24 04:14:58;;;;;;;3.73;3.43;;;;;;;15.25;90.62;100879.34;4993867;28;20232;-72
2021/06/24 04:17:24;;;;;;;3.40;3.10;;;;;;;14.94;90.48;100885.16;4993960;28;20625;-70
2021/06/24 04:19:49;;;;;;;4.30;3.20;;;;;;;14.85;91.59;100885.19;4992464;28;20547;-70
2021/06/24 04:22:14;;;;;;;4.30;3.00;;;;;;;14.80;91.57;100882.63;4993774;28;20622;-70
2021/06/24 04:24:40;;;;;;;3.40;3.10;;;;;;;14.95;91.35;100869.47;4993794;28;20189;-70
2021/06/24 04:27:05;;;;;;;3.13;2.70;;;;;;;15.00;90.85;100864.56;4993795;28;20177;-70
2021/06/24 04:29:31;;;;;;;5.47;3.43;;;;;;;15.01;91.13;100873.63;4993578;28;20184;-70
2021/06/24 04:31:58;;;;;;;3.50;3.20;;;;;;;15.16;91.03;100873.06;4993654;28;20261;-70
2021/06/24 04:34:23;;;;;;;2.83;2.63;;;;;;;15.08;90.36;100863.75;4993626;28;20201;-70
2021/06/24 04:36:49;;;;;;;2.93;2.73;;;;;;;14.94;91.25;100868.66;4993606;28;20189;-73
2021/06/24 04:39:14;;;;;;;2.60;2.40;;;;;;;15.06;91.10;100866.03;4993421;28;20169;-73
2021/06/24 04:41:40;;;;;;;4.40;2.70;;;;;;;15.02;91.52;100870.56;4993365;28;20460;-73
2021/06/24 04:44:06;;;;;;;4.67;2.43;;;;;;;15.11;91.43;100867.78;4992516;28;20633;-73
2021/06/24 04:46:31;;;;;;;3.57;3.27;;;;;;;15.12;90.57;100869.38;4993488;28;20347;-70
2021/06/24 04:48:57;;;;;;;3.00;2.77;;;;;;;14.96;91.48;100857.31;4994021;28;20184;-73
2021/06/24 04:51:22;;;;;;;3.70;2.80;;;;;;;15.26;91.48;100860.91;4995076;28;20188;-73
2021/06/24 04:53:47;;;;;;;4.43;3.83;;;;;;;14.97;91.03;100858.94;4993573;28;20177;-73
2021/06/24 04:56:13;;;;;;;3.00;2.80;;;;;;;14.96;91.59;100860.88;4993017;28;20208;-72
2021/06/24 04:58:38;;;;;;;4.10;3.10;;;;;;;15.25;91.25;100859.28;4993161;28;20181;-73
2021/06/24 05:01:03;;;;;;;7.50;3.43;;;;;;;15.24;90.51;100861.22;4993066;28;20180;-73
2021/06/24 05:03:29;;;;;;;6.70;2.90;;;;;;;14.95;91.39;100855.72;4993351;28;20181;-73
2021/06/24 05:05:54;;;;;;;3.43;3.17;;;;;;;14.89;91.73;100852.31;4992896;28;20180;-73
2021/06/24 05:08:26;;;;;;;3.20;2.87;;;;;;;14.78;92.70;100848.34;4992958;28;20679;-75
2021/06/24 05:10:52;;;;;;;3.37;3.10;;;;;;;14.78;93.00;100848.34;4992817;28;20608;-73
2021/06/24 05:13:17;;;;;;;3.80;3.20;;;;;;;14.84;92.47;100842.31;4992829;28;20173;-73
2021/06/24 05:15:44;;;;;;;3.27;2.97;;;;;;;14.76;92.96;100848.69;4992793;28;20295;-73
2021/06/24 05:18:11;;;;;;;2.97;2.73;;;;;;;14.80;93.35;100849.63;4992628;28;20170;-74
2021/06/24 05:20:39;;;;;;;2.97;2.77;;;;;;;15.04;92.97;100850.97;4991997;28;20628;-73
2021/06/24 05:23:06;;;;;;;3.23;2.93;;;;;;;15.25;92.18;100845.53;4992202;28;20165;-74
2021/06/24 05:25:31;;;;;;;3.63;2.93;;;;;;;15.04;92.00;100845.44;4992149;28;20170;-73
2021/06/24 05:27:57;;;;;;;3.50;3.20;;;;;;;14.88;92.43;100851.50;4992151;28;20560;-73
2021/06/24 05:30:22;;;;;;;3.00;2.80;;;;;;;14.93;92.44;100841.47;4991876;28;20217;-73
2021/06/24 05:32:48;;;;;;;3.80;3.50;;;;;;;15.04;92.69;100846.25;4992064;28;20533;-72
2021/06/24 05:35:13;;;;;;;3.70;3.13;;;;;;;15.19;91.90;100850.41;4991004;28;20209;-71
2021/06/24 05:37:39;;;;;;;3.37;3.07;;;;;;;14.88;92.23;100854.25;4989086;28;20308;-74
2021/06/24 05:40:05;;;;;;;3.10;2.90;;;;;;;15.00;92.43;100848.06;4992162;28;20184;-74
2021/06/24 05:42:30;;;;;;;4.17;3.77;;;;;;;14.97;92.39;100848.72;4992037;28;20181;-72
2021/06/24 05:44:56;;;;;;;3.73;3.37;;;;;;;14.99;93.46;100845.66;4992223;28;20177;-79
2021/06/24 05:47:21;;;;;;;6.33;3.33;;;;;;;15.04;92.21;100851.75;4991938;28;20228;-74
2021/06/24 05:49:47;;;;;;;4.17;3.73;;;;;;;15.05;92.88;100855.34;4986335;28;20210;-74
2021/06/24 05:52:12;;;;;;;4.10;3.70;;;;;;;15.18;92.55;100860.59;4981122;28;20181;-75
2021/06/24 05:54:38;;;;;;;3.50;3.20;;;;;;;15.18;91.97;100868.84;4988931;28;20242;-74
2021/06/24 05:57:03;;;;;;;3.97;3.67;;;;;;;15.03;92.85;100865.84;4992038;28;20263;-74
2021/06/24 05:59:29;;;;;;;4.70;3.50;;;;;;;15.08;93.50;100861.00;4991812;28;20228;-74
2021/06/24 06:01:54;;;;;;;8.93;3.23;;;;;;;15.16;92.84;100867.56;4991967;28;20178;-74
2021/06/24 06:04:20;;;;;;;3.50;3.23;;;;;;;15.15;92.57;100871.47;4991845;28;20169;-74
2021/06/24 06:06:45;;;;;;;6.47;3.93;;;;;;;15.13;92.49;100871.00;4984335;28;20597;-74
2021/06/24 06:09:12;;;;;;;3.23;2.97;;;;;;;15.18;92.49;100871.59;4980100;28;20180;-74
2021/06/24 06:11:37;;;;;;;3.37;2.93;;;;;;;15.26;93.03;100880.16;4982027;28;20170;-74
2021/06/24 06:14:03;;;;;;;3.37;3.13;;;;;;;15.24;92.34;100875.00;4980588;28;20236;-74
2021/06/24 06:16:29;;;;;;;4.27;3.93;;;;;;;15.17;92.39;100875.50;4987631;28;20181;-74
2021/06/24 06:18:55;;;;;;;3.43;3.23;;;;;;;15.19;92.35;100886.19;4991576;28;20181;-74
2021/06/24 06:21:21;;;;;;;3.70;3.37;;;;;;;15.42;92.75;100884.75;4991690;28;20260;-74
2021/06/24 06:23:47;;;;;;;4.97;3.57;;;;;;;15.60;91.89;100876.41;4991658;28;20627;-74
2021/06/24 06:26:12;;;;;;;5.20;3.20;;;;;;;15.79;91.77;100890.56;4991623;28;20181;-72
2021/06/24 06:28:37;;;;;;;3.63;3.33;;;;;;;15.33;91.78;100894.19;4991633;28;20177;-71
2021/06/24 06:31:03;;;;;;;3.43;3.03;;;;;;;15.47;92.25;100889.25;4991374;28;20213;-71
2021/06/24 06:33:29;;;;;;;3.97;3.30;;;;;;;15.24;91.95;100897.00;4991535;28;20177;-71
2021/06/24 06:35:54;;;;;;;6.27;4.20;;;;;;;15.20;92.27;100901.56;4991634;28;20208;-71
2021/06/24 06:38:21;;;;;;;3.63;3.10;;;;;;;15.44;93.09;100907.25;4991536;28;20177;-74
2021/06/24 06:40:47;;;;;;;4.10;3.77;;;;;;;15.40;91.83;100911.81;4989939;28;20169;-73
2021/06/24 06:43:15;;;;;;;5.43;3.73;;;;;;;15.24;92.31;100905.28;4991370;28;20197;-74
2021/06/24 06:45:40;;;;;;;3.50;3.20;;;;;;;15.49;92.34;100909.03;4991214;28;20177;-74
2021/06/24 06:48:06;;;;;;;3.83;3.53;;;;;;;15.37;91.89;100909.75;4991106;28;20188;-74
2021/06/24 06:50:31;;;;;;;3.50;3.20;;;;;;;15.45;91.56;100906.13;4991214;28;20653;-73
2021/06/24 06:52:57;;;;;;;3.90;3.60;;;;;;;15.41;91.66;100905.19;4991326;28;20199;-72
2021/06/24 06:55:28;;;;;;;3.87;3.57;;;;;;;15.67;91.19;100905.06;4991173;28;20219;-72
2021/06/24 06:57:53;;;;;;;3.50;3.20;;;;;;;15.89;90.51;100906.66;4990765;28;20545;-72
2021/06/24 07:00:19;;;;;;;5.33;4.20;;;;;;;15.75;90.12;100908.88;4997510;28;20185;-72
2021/06/24 07:02:45;;;;;;;3.47;3.17;;;;;;;15.74;91.40;100905.31;4989776;28;20203;-72
2021/06/24 07:05:11;;;;;;;3.80;3.50;;;;;;;15.80;90.08;100900.44;4983170;28;20179;-72
2021/06/24 07:07:36;;;;;;;6.37;3.63;;;;;;;15.74;90.54;100899.81;4983458;28;20182;-71
2021/06/24 07:10:03;;;;;;;4.27;3.83;;;;;;;15.77;91.18;100904.66;4985287;28;20178;-71
2021/06/24 07:12:28;;;;;;;4.23;3.80;;;;;;;15.67;90.68;100895.97;4983356;28;20268;-72
2021/06/24 07:14:54;;;;;;;3.93;3.63;;;;;;;15.85;91.16;100896.66;4990100;28;20300;-73
2021/06/24 07:17:19;;;;;;;3.90;3.60;;;;;;;15.84;91.30;100898.63;4994890;28;20192;-72
2021/06/24 07:19:44;;;;;;;6.97;4.50;;;;;;;15.81;91.36;100892.97;4993294;28;20177;-73
2021/06/24 07:22:10;;;;;;;4.83;3.93;;;;;;;15.97;90.89;100899.50;4994935;28;20260;-73
2021/06/24 07:24:35;;;;;;;4.70;3.90;;;;;;;16.00;89.90;100896.84;4994917;28;20816;-72
2021/06/24 07:27:01;;;;;;;4.40;3.83;;;;;;;16.01;89.78;100901.22;4994898;28;20621;-72
2021/06/24 07:29:26;;;;;;;3.90;3.60;;;;;;;16.20;89.62;100894.41;4994756;28;20170;-72
2021/06/24 07:31:51;;;;;;;4.23;3.83;;;;;;;16.18;89.79;100892.00;4994774;28;20200;-72
2021/06/24 07:34:17;;;;;;;4.87;4.47;;;;;;;15.96;90.17;100889.59;4994656;28;20177;-72
2021/06/24 07:36:42;;;;;;;4.30;4.00;;;;;;;15.91;90.54;100887.88;4993042;28;20264;-71
2021/06/24 07:39:08;;;;;;;4.57;4.17;;;;;;;15.69;91.37;100889.00;4986491;28;20529;-71
2021/06/24 07:41:33;;;;;;;4.47;4.07;;;;;;;15.85;92.06;100889.19;4989671;28;20236;-72
2021/06/24 07:43:59;;;;;;;3.90;3.63;;;;;;;15.92;90.95;100883.97;4987696;28;20602;-72
2021/06/24 07:46:24;;;;;;;4.83;4.43;;;;;;;15.94;91.57;100897.41;4990392;28;20248;-74
2021/06/24 07:48:50;;;;;;;5.83;4.70;;;;;;;16.08;90.91;100891.63;4989715;28;20173;-73
2021/06/24 07:51:18;;;;;;;4.63;4.27;;;;;;;16.11;91.12;100890.94;4978162;28;20189;-75
2021/06/24 07:53:43;;;;;;;4.77;4.30;;;;;;;16.27;89.95;100884.47;4992025;28;20192;-70
2021/06/24 07:56:10;;;;;;;5.00;4.50;;;;;;;16.26;89.83;100884.81;4992311;28;20217;-72
2021/06/24 07:58:36;;;;;;;5.93;3.80;;;;;;;16.28;89.85;100877.00;4994094;28;20185;-71
2021/06/24 08:01:02;;;;;;;6.13;4.37;;;;;;;16.40;90.71;100879.00;4994094;28;20177;-72
2021/06/24 08:03:27;;;;;;;4.63;3.90;;;;;;;16.41;88.86;100880.59;4992846;28;20236;-73
2021/06/24 08:05:53;;;;;;;7.17;5.47;;;;;;;16.26;89.25;100884.81;4994180;28;20173;-72
2021/06/24 08:08:18;;;;;;;5.03;4.17;;;;;;;16.21;90.10;100869.28;4993814;28;20177;-73
2021/06/24 08:10:43;;;;;;;4.40;4.00;;;;;;;16.50;89.69;100871.09;4988012;28;20216;-73
2021/06/24 08:13:09;;;;;;;3.73;3.40;;;;;;;16.49;88.86;100874.19;4988378;28;20177;-73
2021/06/24 08:15:34;;;;;;;5.00;4.50;;;;;;;16.35;88.50;100869.00;4993770;28;20605;-72
2021/06/24 08:17:59;;;;;;;4.37;4.03;;;;;;;16.49;88.62;100866.75;4992849;28;20698;-73
2021/06/24 08:20:25;;;;;;;4.67;4.27;;;;;;;16.62;88.80;100868.34;4990881;28;20192;-73
2021/06/24 08:22:50;;;;;;;3.83;3.53;;;;;;;16.60;88.65;100853.28;4993150;28;20188;-73
2021/06/24 08:25:16;;;;;;;4.43;3.33;;;;;;;16.68;87.84;100854.38;4993381;28;20177;-73
2021/06/24 08:27:42;;;;;;;3.93;3.63;;;;;;;16.70;87.87;100860.38;4993146;28;20181;-73
2021/06/24 08:30:08;;;;;;;5.60;5.10;;;;;;;16.54;88.40;100846.41;4992967;28;20187;-72
2021/06/24 08:32:35;;;;;;;10.83;4.20;;;;;;;16.69;87.57;100856.81;4992816;28;20625;-72
2021/06/24 08:35:00;;;;;;;5.90;4.70;;;;;;;16.80;87.32;100852.47;4989763;28;20251;-73
2021/06/24 08:37:26;;;;;;;7.17;4.63;;;;;;;16.83;87.13;100851.75;4992442;28;20212;-72
2021/06/24 08:39:52;;;;;;;4.07;3.77;;;;;;;17.00;86.75;100853.50;4990493;28;20190;-72
2021/06/24 08:42:17;;;;;;;5.30;4.90;;;;;;;16.86;86.75;100844.75;4992592;28;20189;-73
2021/06/24 08:44:45;;;;;;;6.03;4.77;;;;;;;16.76;87.17;100851.50;4991920;28;20192;-72
2021/06/24 08:47:15;;;;;;;5.13;4.63;;;;;;;16.61;87.21;100852.94;4989331;28;20181;-72
2021/06/24 08:49:42;;;;;;;4.80;4.30;;;;;;;16.79;86.69;100841.75;4992316;28;20667;-74
2021/06/24 08:52:08;;;;;;;6.97;4.47;;;;;;;17.17;86.85;100844.16;4992370;28;20684;-74
2021/06/24 08:54:34;;;;;;;5.57;5.07;;;;;;;17.07;85.57;100837.19;4989894;28;20200;-73
2021/06/24 08:56:59;;;;;;;4.47;4.13;;;;;;;17.30;86.17;100847.72;4991263;28;20227;-74
2021/06/24 08:59:25;;;;;;;4.43;4.20;;;;;;;17.43;84.26;100841.03;4990972;28;20174;-74
2021/06/24 09:01:55;;;;;;;4.60;4.20;;;;;;;17.57;83.35;100829.63;4992598;28;20176;-74
2021/06/24 09:04:29;;;;;;;4.37;4.00;;;;;;;17.55;83.76;100830.78;4991339;28;20660;-74
2021/06/24 09:07:06;;;;;;;5.13;4.63;;;;;;;17.35;85.07;100831.72;4992536;28;20201;-74
2021/06/24 09:09:33;;;;;;;5.63;5.23;;;;;;;17.32;83.89;100829.66;4991820;28;20169;-75
2021/06/24 09:12:07;;;;;;;5.97;3.97;;;;;;;17.34;84.88;100830.09;4992484;28;20483;-74
2021/06/24 09:14:48;;;;;;;4.30;4.00;;;;;;;17.54;82.18;100837.47;4992497;28;20196;-75
2021/06/24 09:17:44;;;;;;;5.63;3.77;;;;;;;17.67;80.89;100832.72;4992371;28;20288;-74
2021/06/24 09:20:19;;;;;;;3.60;3.30;;;;;;;17.83;80.18;100841.09;4992261;28;20223;-74
2021/06/24 09:23:24;;;;;;;3.37;3.07;;;;;;;17.93;78.63;100848.88;4992216;28;20185;-74
2021/06/24 09:26:15;;;;;;;4.60;2.90;;;;;;;18.07;79.20;100848.47;4931614;29;20274;-74
2021/06/24 09:28:47;;;;;;;4.73;3.27;;;;;;;18.19;77.18;100845.66;4911929;29;20278;-73
2021/06/24 09:31:21;;;;;;;4.53;3.37;;;;;;;18.09;76.83;100855.28;4972236;28;20247;-74
2021/06/24 09:33:46;;;;;;;3.47;3.17;;;;;;;18.33;77.83;100850.78;4992424;28;20180;-74
2021/06/24 09:36:29;;;;;;;2.80;2.60;;;;;;;18.38;75.19;100851.34;4992375;28;20197;-73
2021/06/24 09:38:54;;;;;;;3.53;3.23;;;;;;;18.59;73.65;100851.09;4992347;28;20183;-73
2021/06/24 09:41:20;;;;;;;2.73;2.53;;;;;;;18.55;73.48;100843.88;4992386;28;20700;-73
2021/06/24 09:43:46;;;;;;;5.23;2.73;;;;;;;18.49;72.99;100848.84;4992406;28;20640;-73
2021/06/24 09:48:44;;;;;;;3.03;2.83;;;;;;;18.62;74.75;100844.03;4992335;28;20177;-74
2021/06/24 09:51:18;;;;;;;2.70;2.50;;;;;;;18.64;73.33;100856.38;4991514;28;20165;-74
2021/06/24 09:54:17;;;;;;;2.80;2.60;;;;;;;18.59;71.99;100856.63;4990358;28;20526;-74
2021/06/24 09:56:54;;;;;;;2.90;2.40;;;;;;;18.90;72.57;100852.31;4990414;28;20387;-73
2021/06/24 09:59:31;;;;;;;2.17;1.97;;;;;;;18.49;70.28;100850.81;4991455;28;20546;-73
2021/06/24 10:01:57;;;;;;;2.23;2.10;;;;;;;18.53;72.97;100851.72;4991594;28;20169;-73
2021/06/24 10:04:31;;;;;;;7.00;3.37;;;;;;;18.65;73.43;100846.13;4990246;28;20632;-73
2021/06/24 10:06:59;;;;;;;3.03;2.83;;;;;;;18.75;70.90;100847.56;4991622;28;20257;-73
2021/06/24 10:09:26;;;;;;;2.77;2.40;;;;;;;19.02;69.07;100850.25;4990912;28;20169;-74
2021/06/24 10:11:53;;;;;;;2.30;2.10;;;;;;;18.84;69.90;100849.00;4991600;28;20185;-74
2021/06/24 10:14:19;;;;;;;2.50;2.30;;;;;;;18.92;71.79;100842.47;4991198;28;20177;-73
2021/06/24 10:16:49;;;;;;;3.00;2.13;;;;;;;18.90;69.55;100844.78;4991543;28;20231;-74
2021/06/24 10:19:17;;;;;;;2.40;2.00;;;;;;;19.20;68.80;100839.59;4991586;28;20535;-74
2021/06/24 10:21:47;;;;;;;4.70;2.90;;;;;;;18.81;69.32;100844.19;4991174;28;20223;-73
2021/06/24 10:24:15;;;;;;;3.00;2.70;;;;;;;18.97;69.91;100836.69;4991516;28;20173;-73
2021/06/24 10:26:47;;;;;;;2.47;2.20;;;;;;;19.34;68.77;100841.88;4991307;28;20204;-73
2021/06/24 10:29:15;;;;;;;2.80;2.60;;;;;;;19.45;70.20;100833.81;4990892;28;20227;-73
2021/06/24 10:31:46;;;;;;;2.97;2.77;;;;;;;19.46;69.04;100839.00;4991092;28;20173;-73
2021/06/24 10:34:12;;;;;;;2.57;2.37;;;;;;;19.47;69.83;100837.81;4991246;28;20585;-73
2021/06/24 10:36:38;;;;;;;2.43;2.33;;;;;;;19.61;68.16;100843.72;4991001;28;20861;-72
2021/06/24 10:39:06;;;;;;;2.70;2.33;;;;;;;19.69;70.09;100836.38;4990874;28;20231;-73
2021/06/24 10:42:09;;;;;;;3.40;3.07;;;;;;;19.33;69.88;100834.75;4989013;28;20258;-72
2021/06/24 10:44:40;;;;;;;2.73;2.53;;;;;;;19.66;67.41;100827.97;4986270;28;20588;-73
2021/06/24 10:47:06;;;;;;;3.60;3.30;;;;;;;19.36;67.97;100833.22;4987840;28;20276;-72
2021/06/24 10:49:31;;;;;;;2.30;2.10;;;;;;;19.38;67.79;100828.09;4993087;28;20177;-72
2021/06/24 10:52:26;;;;;;;2.93;2.30;;;;;;;19.75;67.05;100817.47;4991737;28;20215;-73
2021/06/24 10:54:53;;;;;;;2.63;2.43;;;;;;;19.57;66.64;100820.66;4988811;28;20219;-73
2021/06/24 10:57:45;;;;;;;3.00;2.73;;;;;;;19.52;67.04;100818.13;4991266;28;20207;-73
2021/06/24 11:00:35;;;;;;;2.87;2.67;;;;;;;19.51;66.46;100810.19;4989930;28;20324;-73
2021/06/24 11:03:06;;;;;;;2.13;2.03;;;;;;;19.78;65.39;100811.19;4991383;28;20174;-73
2021/06/24 11:05:54;;;;;;;3.53;2.50;;;;;;;19.81;66.32;100814.03;4990946;28;20170;-73
2021/06/24 11:08:28;;;;;;;4.20;3.13;;;;;;;19.95;67.16;100812.72;4990689;28;20656;-73
2021/06/24 11:11:12;;;;;;;2.33;2.23;;;;;;;19.83;65.57;100808.94;4990720;28;20260;-73
2021/06/24 11:16:06;;;;;;;2.50;2.30;;;;;;;19.88;65.58;100799.53;4991070;28;20209;-72
2021/06/24 11:18:35;;;;;;;2.80;2.60;;;;;;;19.87;67.00;100797.91;4990912;28;20265;-71
2021/06/24 11:21:04;;;;;;;2.80;2.53;;;;;;;19.92;66.24;100801.19;4990438;28;20213;-72
2021/06/24 11:23:36;;;;;;;2.57;2.20;;;;;;;20.20;65.78;100789.84;4990659;28;20173;-72
2021/06/24 11:26:05;;;;;;;2.77;2.40;;;;;;;20.25;64.10;100791.50;4990637;28;20181;-72
2021/06/24 11:28:56;;;;;;;2.83;2.37;;;;;;;20.21;64.82;100799.75;4990614;28;20182;-72
2021/06/24 11:36:59;;;;;;;2.67;2.47;;;;;;;20.66;64.95;100797.41;4990582;28;20220;-72